createdAt,value
2019-03-23T00:01:53.799Z,86.20
2019-03-23T00:04:22.187Z,94.73
2019-03-23T00:06:50.577Z,78.33
2019-03-23T00:09:18.955Z,78.67
2019-03-23T00:11:47.336Z,76.43
2019-03-23T00:14:15.781Z,93.83
2019-03-23T00:16:44.185Z,104.77
2019-03-23T00:19:12.581Z,92.53
2019-03-23T00:21:40.980Z,96.87
2019-03-23T00:24:09.364Z,106.20
2019-03-23T00:26:37.755Z,119.23
2019-03-23T00:29:06.148Z,120.67
2019-03-23T00:31:34.539Z,120.37
2019-03-23T00:34:02.920Z,118.90
2019-03-23T00:36:40.828Z,124.97
2019-03-23T00:39:01.672Z,129.90
2019-03-23T00:41:30.055Z,149.23
2019-03-23T00:43:58.447Z,139.33
2019-03-23T00:46:26.833Z,168.93
2019-03-23T00:48:55.215Z,145.27
2019-03-23T00:51:23.612Z,152.83
2019-03-23T00:53:51.999Z,166.40
2019-03-23T00:56:20.380Z,154.50
2019-03-23T00:58:48.780Z,157.53
2019-03-23T01:01:17.164Z,150.00
2019-03-23T01:03:45.541Z,168.57
2019-03-23T01:06:13.939Z,169.73
2019-03-23T01:08:42.317Z,185.73
2019-03-23T01:11:10.719Z,194.67
2019-03-23T01:13:39.104Z,210.23
2019-03-23T01:16:07.476Z,251.63
2019-03-23T01:18:35.887Z,205.77
2019-03-23T01:21:04.284Z,209.00
2019-03-23T01:23:32.668Z,316.17
2019-03-23T01:26:01.073Z,354.60
2019-03-23T01:28:29.523Z,420.97
2019-03-23T01:30:57.903Z,367.90
2019-03-23T01:33:26.294Z,471.93
2019-03-23T01:35:54.684Z,290.03
2019-03-23T01:38:23.096Z,439.27
2019-03-23T01:40:51.472Z,363.33
2019-03-23T01:43:19.855Z,235.43
2019-03-23T01:45:48.247Z,274.47
2019-03-23T01:48:16.635Z,403.60
2019-03-23T01:50:45.035Z,367.20
2019-03-23T01:53:13.415Z,314.53
2019-03-23T01:55:41.794Z,208.03
2019-03-23T01:58:10.189Z,211.60
2019-03-23T02:00:38.578Z,256.90
2019-03-23T02:03:06.968Z,287.23
2019-03-23T02:05:35.352Z,356.13
2019-03-23T02:08:03.743Z,357.87
2019-03-23T02:10:32.138Z,382.60
2019-03-23T02:13:00.512Z,378.93
2019-03-23T02:15:28.903Z,409.20
2019-03-23T02:17:57.306Z,372.90
2019-03-23T02:20:25.683Z,299.63
2019-03-23T02:22:54.067Z,308.60
2019-03-23T02:25:22.468Z,323.80
2019-03-23T02:27:50.843Z,394.83
2019-03-23T02:30:19.261Z,374.70
2019-03-23T02:32:47.695Z,360.73
2019-03-23T02:35:16.080Z,420.43
2019-03-23T02:37:44.693Z,466.97
2019-03-23T02:40:13.145Z,416.97
2019-03-23T02:42:41.541Z,401.60
2019-03-23T02:45:12.232Z,287.70
2019-03-23T02:47:40.629Z,313.33
2019-03-23T02:50:10.287Z,387.20
2019-03-23T02:52:38.680Z,353.67
2019-03-23T02:55:09.209Z,387.57
2019-03-23T02:57:37.600Z,373.57
2019-03-23T03:00:09.288Z,295.57
2019-03-23T03:02:37.737Z,211.63
2019-03-23T03:05:08.268Z,348.90
2019-03-23T03:07:42.414Z,376.43
2019-03-23T03:10:11.014Z,322.17
2019-03-23T03:12:39.449Z,350.37
2019-03-23T03:15:09.076Z,308.87
2019-03-23T03:17:37.464Z,298.63
2019-03-23T03:20:07.606Z,296.03
2019-03-23T03:22:36.006Z,254.20
2019-03-23T03:25:06.407Z,264.10
2019-03-23T03:27:34.810Z,279.13
2019-03-23T03:30:03.848Z,268.90
2019-03-23T03:32:32.250Z,260.93
2019-03-23T03:35:00.768Z,245.10
2019-03-23T03:37:29.199Z,277.87
2019-03-23T03:39:57.601Z,253.13
2019-03-23T03:42:26.106Z,265.33
2019-03-23T03:44:54.511Z,235.33
2019-03-23T03:47:22.986Z,245.83
2019-03-23T03:49:51.355Z,233.97
2019-03-23T03:52:19.758Z,230.70
2019-03-23T03:54:48.144Z,243.87
2019-03-23T03:57:16.528Z,253.53
2019-03-23T03:59:44.913Z,262.20
2019-03-23T04:02:13.308Z,263.13
2019-03-23T04:04:41.708Z,253.80
2019-03-23T04:07:10.088Z,277.33
2019-03-23T04:09:40.438Z,247.07
2019-03-23T04:12:08.596Z,273.23
2019-03-23T04:14:36.981Z,244.57
2019-03-23T04:17:05.379Z,229.53
2019-03-23T04:19:33.758Z,201.87
2019-03-23T04:22:02.154Z,204.23
2019-03-23T04:24:30.535Z,202.17
2019-03-23T04:26:58.922Z,207.47
2019-03-23T04:29:27.315Z,195.33
2019-03-23T04:31:55.705Z,219.73
2019-03-23T04:34:24.090Z,200.53
2019-03-23T04:36:52.492Z,203.93
2019-03-23T04:39:20.881Z,217.57
2019-03-23T04:41:49.264Z,185.73
2019-03-23T04:44:17.655Z,189.20
2019-03-23T04:46:46.054Z,161.73
2019-03-23T04:49:14.439Z,146.73
2019-03-23T04:51:42.813Z,147.90
2019-03-23T04:54:11.212Z,123.67
2019-03-23T04:56:39.595Z,131.57
2019-03-23T04:59:07.984Z,146.93
2019-03-23T05:01:36.377Z,164.97
2019-03-23T05:04:04.767Z,156.83
2019-03-23T05:06:33.160Z,152.67
2019-03-23T05:09:01.540Z,153.40
2019-03-23T05:11:29.927Z,166.00
2019-03-23T05:13:58.315Z,163.27
2019-03-23T05:16:26.724Z,163.13
2019-03-23T05:18:55.099Z,164.30
2019-03-23T05:21:23.480Z,186.13
2019-03-23T05:23:51.878Z,177.00
2019-03-23T05:26:20.269Z,171.50
2019-03-23T05:28:48.659Z,173.20
2019-03-23T05:31:17.056Z,181.47
2019-03-23T05:33:45.432Z,162.80
2019-03-23T05:36:15.354Z,148.57
2019-03-23T05:38:44.927Z,169.50
2019-03-23T05:41:13.464Z,145.07
2019-03-23T05:43:41.849Z,138.33
2019-03-23T05:46:10.228Z,152.93
2019-03-23T05:48:38.628Z,151.67
2019-03-23T05:51:07.012Z,125.77
2019-03-23T05:53:35.411Z,135.80
2019-03-23T05:56:03.787Z,133.47
2019-03-23T05:58:32.165Z,143.57
2019-03-23T06:01:00.560Z,130.43
2019-03-23T06:03:28.951Z,114.90
2019-03-23T06:05:57.339Z,142.10
2019-03-23T06:08:25.732Z,142.90
2019-03-23T06:10:54.116Z,126.43
2019-03-23T06:13:22.504Z,127.37
2019-03-23T06:15:50.895Z,123.43
2019-03-23T06:18:19.276Z,127.83
2019-03-23T06:20:47.659Z,123.00
2019-03-23T06:23:16.044Z,128.03
2019-03-23T06:25:44.436Z,134.87
2019-03-23T06:28:12.815Z,121.67
2019-03-23T06:30:41.215Z,136.80
2019-03-23T06:33:09.615Z,125.23
2019-03-23T06:35:38.001Z,122.50
2019-03-23T06:38:06.399Z,122.83
2019-03-23T06:40:34.775Z,124.60
2019-03-23T06:43:03.165Z,124.57
2019-03-23T06:45:31.559Z,121.67
2019-03-23T06:47:59.940Z,109.67
2019-03-23T06:50:28.352Z,120.27
2019-03-23T06:52:56.735Z,123.20
2019-03-23T06:55:25.120Z,111.47
2019-03-23T06:57:53.515Z,118.87
2019-03-23T07:00:21.901Z,126.03
2019-03-23T07:02:50.272Z,141.27
2019-03-23T07:05:18.660Z,120.83
2019-03-23T07:07:47.053Z,127.93
2019-03-23T07:10:15.507Z,133.77
2019-03-23T07:12:43.892Z,126.53
2019-03-23T07:15:19.931Z,107.97
2019-03-23T07:17:42.826Z,113.57
2019-03-23T07:20:13.052Z,118.70
2019-03-23T07:22:41.449Z,118.53
2019-03-23T07:25:11.470Z,112.00
2019-03-23T07:27:39.867Z,118.17
2019-03-23T07:30:19.117Z,116.37
2019-03-23T07:32:47.508Z,111.60
2019-03-23T07:35:16.070Z,116.93
2019-03-23T07:37:44.448Z,108.03
2019-03-23T07:40:13.269Z,109.60
2019-03-23T07:42:41.727Z,99.43
2019-03-23T07:45:15.075Z,98.60
2019-03-23T07:47:43.548Z,105.27
2019-03-23T07:50:13.464Z,102.10
2019-03-23T07:52:41.851Z,97.70
2019-03-23T07:55:16.992Z,96.97
2019-03-23T07:57:45.541Z,99.20
2019-03-23T08:00:19.389Z,95.00
2019-03-23T08:02:47.851Z,93.60
2019-03-23T08:05:16.236Z,95.80
2019-03-23T08:07:44.619Z,102.93
2019-03-23T08:10:16.088Z,98.30
2019-03-23T08:12:44.479Z,91.80
2019-03-23T08:15:12.932Z,94.43
2019-03-23T08:17:41.320Z,95.87
2019-03-23T08:20:09.714Z,97.00
2019-03-23T08:22:38.096Z,90.07
2019-03-23T08:25:07.116Z,91.30
2019-03-23T08:27:35.508Z,99.43
2019-03-23T08:30:05.933Z,100.63
2019-03-23T08:32:34.321Z,103.00
2019-03-23T08:35:02.747Z,103.03
2019-03-23T08:37:31.123Z,96.17
2019-03-23T08:39:59.515Z,96.00
2019-03-23T08:42:27.920Z,103.17
2019-03-23T08:44:56.295Z,99.47
2019-03-23T08:47:24.692Z,105.50
2019-03-23T08:49:53.076Z,102.20
2019-03-23T08:52:21.464Z,108.20
2019-03-23T08:54:49.867Z,112.17
2019-03-23T08:57:18.256Z,111.00
2019-03-23T08:59:47.611Z,106.77
2019-03-23T09:02:16.010Z,108.43
2019-03-23T09:04:44.404Z,109.10
2019-03-23T09:07:12.783Z,126.77
2019-03-23T09:09:41.168Z,107.80
2019-03-23T09:12:09.567Z,112.80
2019-03-23T09:14:37.952Z,112.00
2019-03-23T09:17:06.337Z,107.20
2019-03-23T09:19:35.103Z,112.40
2019-03-23T09:22:03.562Z,115.60
2019-03-23T09:24:31.947Z,112.87
2019-03-23T09:27:00.340Z,121.83
2019-03-23T09:29:28.800Z,115.73
2019-03-23T09:31:57.191Z,111.73
2019-03-23T09:34:25.611Z,113.87
2019-03-23T09:36:53.995Z,111.17
2019-03-23T09:39:22.380Z,100.90
2019-03-23T09:41:50.772Z,106.50
2019-03-23T09:44:19.156Z,98.10
2019-03-23T09:46:47.540Z,94.20
2019-03-23T09:49:15.933Z,102.20
2019-03-23T09:51:44.323Z,96.67
2019-03-23T09:54:12.711Z,95.93
2019-03-23T09:56:41.111Z,91.73
2019-03-23T09:59:09.491Z,87.40
2019-03-23T10:01:37.880Z,91.30
2019-03-23T10:04:06.274Z,81.77
2019-03-23T10:06:34.649Z,84.77
2019-03-23T10:09:04.227Z,84.67
2019-03-23T10:11:32.620Z,92.30
2019-03-23T10:14:03.120Z,89.37
2019-03-23T10:16:31.104Z,87.33
2019-03-23T10:18:59.495Z,77.17
2019-03-23T10:21:27.879Z,78.70
2019-03-23T10:23:56.272Z,79.20
2019-03-23T10:26:24.651Z,75.73
2019-03-23T10:28:53.032Z,69.20
2019-03-23T10:31:21.420Z,72.17
2019-03-23T10:33:49.807Z,67.63
2019-03-23T10:36:18.200Z,76.07
2019-03-23T10:38:46.583Z,68.47
2019-03-23T10:41:14.976Z,76.50
2019-03-23T10:43:43.373Z,83.03
2019-03-23T10:46:11.751Z,78.47
2019-03-23T10:48:40.143Z,84.27
2019-03-23T10:51:08.523Z,76.17
2019-03-23T10:53:36.905Z,88.07
2019-03-23T10:56:05.301Z,87.60
2019-03-23T10:58:33.692Z,83.33
2019-03-23T11:01:02.068Z,86.67
2019-03-23T11:03:30.451Z,82.33
2019-03-23T11:05:58.854Z,75.70
2019-03-23T11:08:27.248Z,77.93
2019-03-23T11:10:55.627Z,76.20
2019-03-23T11:13:24.040Z,73.97
2019-03-23T11:15:52.418Z,80.40
2019-03-23T11:18:20.797Z,91.53
2019-03-23T11:20:49.191Z,84.43
2019-03-23T11:23:17.582Z,85.87
2019-03-23T11:25:45.974Z,82.90
2019-03-23T11:28:14.367Z,81.73
2019-03-23T11:30:42.755Z,80.00
2019-03-23T11:33:11.144Z,79.83
2019-03-23T11:35:39.523Z,78.80
2019-03-23T11:38:07.916Z,77.23
2019-03-23T11:40:36.301Z,75.30
2019-03-23T11:43:04.691Z,76.57
2019-03-23T11:45:33.106Z,76.07
2019-03-23T11:48:01.465Z,73.60
2019-03-23T11:50:29.855Z,78.20
2019-03-23T11:52:58.244Z,76.97
2019-03-23T11:55:26.628Z,73.60
2019-03-23T11:57:55.024Z,74.90
2019-03-23T12:00:23.407Z,78.00
2019-03-23T12:02:51.800Z,80.77
2019-03-23T12:05:20.184Z,81.63
2019-03-23T12:07:48.559Z,77.77
2019-03-23T12:10:17.028Z,84.30
2019-03-23T12:12:45.778Z,81.00
2019-03-23T12:15:14.644Z,102.30
2019-03-23T12:17:43.023Z,90.93
2019-03-23T12:20:12.240Z,79.07
2019-03-23T12:22:40.627Z,87.03
2019-03-23T12:25:09.288Z,86.83
2019-03-23T12:27:37.672Z,85.50
2019-03-23T12:30:09.491Z,85.30
2019-03-23T12:32:37.880Z,86.57
2019-03-23T12:35:08.008Z,80.73
2019-03-23T12:37:36.402Z,98.43
2019-03-23T12:40:06.619Z,93.53
2019-03-23T12:42:35.081Z,88.77
2019-03-23T12:45:04.691Z,88.43
2019-03-23T12:47:33.070Z,83.37
2019-03-23T12:50:02.415Z,82.60
2019-03-23T12:52:30.816Z,82.67
2019-03-23T12:54:59.192Z,92.07
2019-03-23T12:57:27.570Z,77.80
2019-03-23T12:59:55.971Z,79.90
2019-03-23T13:02:24.360Z,77.00
2019-03-23T13:04:52.735Z,84.30
2019-03-23T13:07:21.128Z,81.20
2019-03-23T13:09:49.512Z,81.30
2019-03-23T13:12:17.907Z,86.30
2019-03-23T13:14:46.303Z,79.73
2019-03-23T13:17:14.680Z,82.40
2019-03-23T13:19:43.063Z,81.87
2019-03-23T13:22:11.824Z,79.07
2019-03-23T13:24:40.203Z,75.83
2019-03-23T13:27:08.583Z,81.70
2019-03-23T13:29:36.983Z,81.97
2019-03-23T13:32:05.371Z,78.87
2019-03-23T13:34:33.751Z,85.70
2019-03-23T13:37:02.148Z,79.90
2019-03-23T13:39:30.532Z,86.90
2019-03-23T13:41:58.939Z,88.23
2019-03-23T13:44:27.329Z,85.47
2019-03-23T13:46:55.703Z,88.07
2019-03-23T13:49:24.101Z,86.67
2019-03-23T13:52:03.036Z,81.80
2019-03-23T13:54:31.431Z,76.10
2019-03-23T13:56:59.943Z,80.00
2019-03-23T13:59:28.334Z,77.33
2019-03-23T14:01:56.751Z,85.80
2019-03-23T14:04:25.136Z,82.27
2019-03-23T14:06:53.515Z,85.03
2019-03-23T14:09:21.906Z,88.27
2019-03-23T14:11:55.008Z,82.17
2019-03-23T14:14:20.404Z,88.17
2019-03-23T14:16:48.785Z,89.43
2019-03-23T14:19:17.181Z,84.23
2019-03-23T14:21:45.560Z,87.17
2019-03-23T14:24:13.956Z,84.63
2019-03-23T14:26:42.340Z,89.43
2019-03-23T14:29:10.731Z,88.87
2019-03-23T14:31:39.124Z,90.83
2019-03-23T14:34:07.515Z,91.93
2019-03-23T14:36:35.909Z,85.13
2019-03-23T14:39:05.931Z,86.97
2019-03-23T14:41:34.324Z,92.00
2019-03-23T14:44:02.710Z,88.77
2019-03-23T14:46:31.091Z,92.80
2019-03-23T14:49:01.910Z,96.10
2019-03-23T14:51:29.603Z,100.60
2019-03-23T14:53:58.008Z,86.87
2019-03-23T14:56:31.597Z,94.03
2019-03-23T14:58:56.535Z,87.20
2019-03-23T15:01:24.928Z,92.93
2019-03-23T15:03:53.336Z,94.00
2019-03-23T15:06:21.699Z,93.63
2019-03-23T15:08:50.080Z,89.90
2019-03-23T15:11:18.495Z,95.93
2019-03-23T15:13:47.635Z,89.13
2019-03-23T15:16:16.134Z,98.47
2019-03-23T15:18:44.511Z,95.07
2019-03-23T15:21:12.899Z,98.13
2019-03-23T15:23:41.300Z,93.93
2019-03-23T15:26:09.679Z,99.63
2019-03-23T15:28:38.076Z,91.83
2019-03-23T15:31:06.459Z,95.10
2019-03-23T15:33:34.847Z,99.60
2019-03-23T15:36:03.674Z,94.03
2019-03-23T15:38:32.200Z,94.47
2019-03-23T15:41:00.580Z,96.37
2019-03-23T15:43:28.980Z,96.90
2019-03-23T15:45:57.364Z,94.40
2019-03-23T15:48:25.752Z,98.63
2019-03-23T15:50:54.156Z,93.90
2019-03-23T15:53:22.535Z,101.07
2019-03-23T15:55:50.917Z,98.83
2019-03-23T15:58:19.319Z,105.10
2019-03-23T16:00:47.700Z,99.23
2019-03-23T16:03:16.080Z,101.97
2019-03-23T16:05:44.475Z,103.73
2019-03-23T16:08:12.865Z,108.20
2019-03-23T16:10:41.260Z,99.47
2019-03-23T16:13:09.634Z,96.53
2019-03-23T16:15:38.083Z,96.33
2019-03-23T16:18:06.491Z,109.50
2019-03-23T16:20:34.876Z,100.27
2019-03-23T16:23:03.261Z,95.40
2019-03-23T16:25:31.648Z,98.03
2019-03-23T16:28:00.027Z,95.97
2019-03-23T16:30:32.287Z,95.20
2019-03-23T16:33:00.672Z,96.97
2019-03-23T16:35:29.051Z,97.90
2019-03-23T16:37:57.459Z,103.83
2019-03-23T16:40:25.847Z,100.03
2019-03-23T16:42:54.238Z,104.07
2019-03-23T16:45:22.632Z,99.87
2019-03-23T16:47:51.014Z,99.83
2019-03-23T16:50:19.407Z,101.33
2019-03-23T16:52:47.803Z,105.43
2019-03-23T16:55:16.202Z,98.07
2019-03-23T16:57:44.572Z,96.43
2019-03-23T17:00:14.900Z,95.97
2019-03-23T17:02:43.280Z,100.73
2019-03-23T17:05:11.735Z,94.77
2019-03-23T17:07:40.128Z,98.67
2019-03-23T17:10:09.196Z,97.73
2019-03-23T17:12:37.562Z,97.03
2019-03-23T17:15:25.303Z,103.53
2019-03-23T17:17:53.697Z,97.27
2019-03-23T17:20:22.080Z,104.77
2019-03-23T17:22:50.477Z,100.10
2019-03-23T17:25:18.868Z,98.23
2019-03-23T17:27:47.252Z,95.90
2019-03-23T17:30:15.700Z,107.97
2019-03-23T17:32:44.087Z,103.43
2019-03-23T17:35:12.487Z,97.77
2019-03-23T17:37:40.878Z,101.30
2019-03-23T17:40:09.459Z,101.00
2019-03-23T17:42:37.920Z,101.43
2019-03-23T17:45:08.116Z,98.53
2019-03-23T17:47:36.503Z,102.17
2019-03-23T17:50:06.024Z,101.57
2019-03-23T17:52:34.479Z,110.87
2019-03-23T17:55:03.240Z,102.60
2019-03-23T17:57:31.620Z,111.07
2019-03-23T18:00:00.008Z,115.33
2019-03-23T18:02:28.391Z,112.53
2019-03-23T18:04:56.787Z,108.03
2019-03-23T18:07:25.170Z,111.13
2019-03-23T18:09:53.569Z,114.37
2019-03-23T18:12:21.952Z,111.03
2019-03-23T18:14:50.351Z,104.40
2019-03-23T18:17:18.727Z,106.40
2019-03-23T18:19:47.117Z,111.20
2019-03-23T18:22:15.503Z,112.60
2019-03-23T18:24:43.895Z,111.67
2019-03-23T18:27:12.287Z,108.80
2019-03-23T18:29:40.683Z,112.53
2019-03-23T18:32:09.089Z,112.60
2019-03-23T18:34:37.461Z,112.47
2019-03-23T18:37:05.890Z,107.77
2019-03-23T18:39:34.346Z,109.43
2019-03-23T18:42:02.796Z,113.23
2019-03-23T18:44:31.643Z,110.33
2019-03-23T18:47:00.044Z,112.43
2019-03-23T18:49:28.480Z,108.43
2019-03-23T18:51:56.871Z,107.03
2019-03-23T18:54:25.331Z,111.03
2019-03-23T18:56:53.724Z,114.70
2019-03-23T18:59:41.463Z,107.17
2019-03-23T19:02:09.865Z,110.17
2019-03-23T19:04:38.256Z,113.87
2019-03-23T19:07:06.656Z,114.43
2019-03-23T19:09:35.048Z,116.03
2019-03-23T19:12:03.439Z,121.03
2019-03-23T19:14:31.830Z,128.50
2019-03-23T19:17:00.216Z,127.20
2019-03-23T19:19:28.615Z,125.67
2019-03-23T19:21:57.004Z,122.23
2019-03-23T19:24:25.402Z,124.83
2019-03-23T19:26:53.802Z,121.90
2019-03-23T19:29:22.188Z,115.17
2019-03-23T19:31:50.578Z,123.83
2019-03-23T19:34:18.975Z,114.33
2019-03-23T19:36:47.364Z,109.57
2019-03-23T19:39:15.761Z,110.30
2019-03-23T19:41:44.148Z,105.83
2019-03-23T19:44:12.540Z,104.00
2019-03-23T19:46:40.924Z,103.87
2019-03-23T19:49:09.315Z,101.00
2019-03-23T19:51:37.715Z,101.53
2019-03-23T19:54:06.101Z,95.13
2019-03-23T19:56:34.483Z,80.73
2019-03-23T19:59:02.879Z,73.13
2019-03-23T20:01:31.263Z,62.97
2019-03-23T20:03:59.648Z,67.70
2019-03-23T20:06:28.070Z,59.13
2019-03-23T20:08:56.501Z,57.40
2019-03-23T20:11:24.915Z,58.77
2019-03-23T20:13:58.747Z,59.43
2019-03-23T20:16:23.468Z,63.03
2019-03-23T20:18:51.852Z,60.23
2019-03-23T20:21:20.249Z,51.20
2019-03-23T20:23:48.634Z,55.07
2019-03-23T20:26:17.017Z,56.93
2019-03-23T20:28:45.420Z,51.80
2019-03-23T20:31:13.802Z,48.93
2019-03-23T20:33:42.188Z,50.83
2019-03-23T20:36:10.584Z,50.33
2019-03-23T20:38:39.008Z,45.27
2019-03-23T20:41:07.386Z,42.43
2019-03-23T20:43:35.991Z,44.20
2019-03-23T20:46:04.400Z,44.57
2019-03-23T20:48:32.943Z,42.77
2019-03-23T20:51:01.664Z,40.43
2019-03-23T20:53:49.400Z,41.43
2019-03-23T20:56:17.786Z,38.33
2019-03-23T20:58:46.164Z,47.63
2019-03-23T21:01:14.574Z,45.27
2019-03-23T21:03:42.943Z,48.70
2019-03-23T21:06:12.607Z,50.03
2019-03-23T21:08:41.203Z,50.43
2019-03-23T21:11:09.584Z,52.53
2019-03-23T21:13:37.980Z,48.40
2019-03-23T21:16:06.429Z,53.73
2019-03-23T21:18:34.803Z,57.60
2019-03-23T21:21:03.249Z,58.70
2019-03-23T21:23:31.659Z,53.23
2019-03-23T21:26:00.048Z,52.60
2019-03-23T21:28:28.440Z,50.37
2019-03-23T21:30:56.832Z,57.80
2019-03-23T21:33:31.775Z,59.00
2019-03-23T21:35:55.317Z,56.57
2019-03-23T21:38:43.052Z,62.40
2019-03-23T21:41:11.436Z,64.83
2019-03-23T21:43:39.832Z,62.17
2019-03-23T21:46:08.212Z,65.53
2019-03-23T21:48:36.592Z,66.27
2019-03-23T21:51:04.981Z,60.40
2019-03-23T21:53:33.358Z,68.20
2019-03-23T21:56:01.752Z,61.87
2019-03-23T21:58:30.128Z,61.37
2019-03-23T22:00:58.752Z,61.87
2019-03-23T22:03:27.144Z,63.00
2019-03-23T22:05:55.528Z,64.90
2019-03-23T22:08:23.900Z,66.77
2019-03-23T22:10:52.294Z,61.67
2019-03-23T22:13:20.912Z,75.10
2019-03-23T22:15:49.293Z,61.53
2019-03-23T22:18:17.692Z,61.60
2019-03-23T22:20:46.072Z,63.83
2019-03-23T22:23:14.455Z,58.70
2019-03-23T22:25:42.855Z,69.43
2019-03-23T22:28:11.238Z,61.33
2019-03-23T22:30:39.623Z,62.47
2019-03-23T22:33:08.020Z,65.63
2019-03-23T22:35:36.400Z,68.40
2019-03-23T22:38:04.779Z,64.33
2019-03-23T22:40:33.183Z,56.47
2019-03-23T22:43:01.561Z,64.73
2019-03-23T22:45:29.936Z,65.77
2019-03-23T22:47:59.180Z,57.23
2019-03-23T22:50:27.563Z,64.07
2019-03-23T22:52:55.943Z,59.07
2019-03-23T22:55:24.323Z,62.17
2019-03-23T22:57:52.710Z,54.50
2019-03-23T23:00:41.395Z,59.23
2019-03-23T23:03:09.924Z,52.93
2019-03-23T23:05:38.302Z,59.00
2019-03-23T23:08:06.696Z,49.47
2019-03-23T23:10:35.303Z,57.97
2019-03-23T23:13:03.687Z,56.00
2019-03-23T23:15:32.071Z,50.80
2019-03-23T23:18:00.455Z,56.70
2019-03-23T23:20:28.846Z,47.17
2019-03-23T23:22:57.231Z,46.20
2019-03-23T23:25:25.604Z,45.03
2019-03-23T23:27:53.995Z,47.77
2019-03-23T23:30:22.383Z,43.47
2019-03-23T23:32:51.067Z,48.43
2019-03-23T23:35:19.447Z,40.37
2019-03-23T23:37:47.834Z,43.53
2019-03-23T23:40:16.219Z,42.33
2019-03-23T23:42:44.604Z,40.27
2019-03-23T23:45:15.711Z,43.23
2019-03-23T23:47:43.167Z,35.63
2019-03-23T23:50:12.196Z,39.33
2019-03-23T23:52:40.576Z,38.97
2019-03-23T23:55:09.208Z,35.67
2019-03-23T23:57:37.587Z,34.27
